Time;durP1;ratioP1;P1;durP2;ratioP2;P2;SDS_P1;SDS_P2;PMS_P1;PMS_P2;Temp;Humidity;BMP_temperature;BMP_pressure;BME280_temperature;BME280_humidity;BME280_pressure;Samples;Min_cycle;Max_cycle;Signal;HPM_P1;HPM_P2
2022/01/22 00:00:34;;;;;;;8.03;4.90;;;18.20;39.10;;;;;;5019237;28;20235;-69
2022/01/22 00:02:59;;;;;;;7.20;4.90;;;18.20;39.10;;;;;;5020650;28;20215;-69
2022/01/22 00:05:25;;;;;;;7.60;5.00;;;18.20;39.10;;;;;;5019659;28;20223;-69
2022/01/22 00:07:51;;;;;;;4.93;4.43;;;18.20;39.10;;;;;;5039499;28;20215;-69
2022/01/22 00:10:19;;;;;;;9.90;5.20;;;18.30;39.20;;;;;;5037218;28;20221;-70
2022/01/22 00:15:18;;;;;;;5.03;4.33;;;18.20;39.10;;;;;;5036623;28;20460;-70
2022/01/22 00:17:44;;;;;;;7.00;4.93;;;18.20;39.10;;;;;;5043655;28;20475;-69
2022/01/22 00:20:12;;;;;;;6.23;4.77;;;18.20;39.20;;;;;;5032413;28;20877;-69
2022/01/22 00:22:37;;;;;;;6.83;4.33;;;18.20;39.10;;;;;;5047569;28;20422;-70
2022/01/22 00:25:08;;;;;;;5.13;4.63;;;18.20;39.10;;;;;;5041583;28;20505;-70
2022/01/22 00:27:38;;;;;;;5.87;4.27;;;18.20;39.10;;;;;;5037836;28;20242;-69
2022/01/22 00:30:06;;;;;;;7.47;4.60;;;18.20;39.10;;;;;;5042446;28;20529;-70
2022/01/22 00:32:31;;;;;;;6.87;5.30;;;18.20;39.10;;;;;;5046105;28;21015;-69
2022/01/22 00:34:57;;;;;;;5.20;4.70;;;18.20;39.10;;;;;;5042968;28;20460;-69
2022/01/22 00:37:22;;;;;;;5.13;4.63;;;18.20;39.10;;;;;;5047738;28;20288;-69
2022/01/22 00:39:48;;;;;;;6.43;3.83;;;18.20;39.10;;;;;;5043428;28;20271;-69
2022/01/22 00:42:15;;;;;;;4.33;3.93;;;18.20;39.10;;;;;;5043336;28;20681;-69
2022/01/22 00:44:42;;;;;;;6.63;4.77;;;18.20;39.10;;;;;;5040089;28;20219;-69
2022/01/22 00:47:09;;;;;;;4.63;4.13;;;18.20;39.10;;;;;;5043821;28;20427;-69
2022/01/22 00:49:35;;;;;;;4.90;3.93;;;18.20;39.10;;;;;;5046040;28;26656;-69
2022/01/22 00:52:01;;;;;;;4.47;4.13;;;18.20;39.10;;;;;;5073406;28;20889;-69
2022/01/22 00:54:27;;;;;;;4.43;3.63;;;18.20;39.10;;;;;;5042155;28;20419;-69
2022/01/22 00:56:53;;;;;;;5.27;4.53;;;18.20;39.10;;;;;;5044374;28;20426;-69
2022/01/22 00:59:18;;;;;;;4.47;3.67;;;18.20;39.10;;;;;;5036494;28;20219;-69
2022/01/22 01:01:44;;;;;;;3.77;3.47;;;18.20;39.10;;;;;;5045695;28;20234;-69
2022/01/22 01:04:11;;;;;;;4.67;4.17;;;18.20;39.10;;;;;;5041898;28;20222;-69
2022/01/22 01:06:38;;;;;;;3.70;3.20;;;18.20;39.10;;;;;;5044250;28;20254;-68
2022/01/22 01:09:06;;;;;;;4.40;3.70;;;18.20;39.10;;;;;;5044632;28;20550;-68
2022/01/22 01:11:35;;;;;;;4.03;3.63;;;18.20;39.10;;;;;;5039951;28;20935;-68
2022/01/22 01:14:03;;;;;;;4.27;3.87;;;18.20;39.10;;;;;;5043243;28;20980;-68
2022/01/22 01:35:20;;;;;;;5.33;3.10;;;18.20;39.10;;;;;;5021241;28;20448;-68
2022/01/22 01:37:46;;;;;;;3.90;3.60;;;18.20;39.20;;;;;;5020325;28;20461;-68
2022/01/22 01:40:16;;;;;;;3.90;3.60;;;18.20;39.10;;;;;;5019878;28;20562;-68
2022/01/22 01:42:57;;;;;;;3.73;3.40;;;18.20;39.10;;;;;;5043595;28;20770;-67
2022/01/22 01:45:23;;;;;;;3.70;3.40;;;18.20;39.10;;;;;;5048059;28;20456;-68
2022/01/22 01:48:03;;;;;;;4.63;3.40;;;18.20;39.10;;;;;;5071101;28;20788;-68
2022/01/22 01:50:35;;;;;;;3.77;3.40;;;18.20;39.10;;;;;;5046721;28;20746;-68
2022/01/22 01:53:28;;;;;;;3.70;3.40;;;18.20;39.10;;;;;;5041938;28;20426;-68
2022/01/22 01:58:23;;;;;;;3.60;3.30;;;18.20;39.10;;;;;;5044694;28;20451;-68
2022/01/22 02:00:50;;;;;;;4.50;3.67;;;18.20;39.20;;;;;;5045520;28;20439;-68
2022/01/22 02:03:16;;;;;;;3.37;3.00;;;18.20;39.10;;;;;;5039792;28;20906;-68
2022/01/22 02:05:41;;;;;;;3.80;3.20;;;18.20;39.10;;;;;;5039017;28;20528;-68
2022/01/22 02:08:08;;;;;;;5.40;3.83;;;18.20;39.10;;;;;;5044500;28;20218;-68
2022/01/22 02:10:38;;;;;;;3.50;3.20;;;18.20;39.20;;;;;;5040885;28;20227;-68
2022/01/22 02:24:03;;;;;;;3.83;2.90;;;18.20;39.20;;;;;;5039958;28;20494;-68
2022/01/22 02:26:29;;;;;;;4.97;3.60;;;18.20;39.20;;;;;;5043019;28;20758;-68
2022/01/22 02:28:55;;;;;;;4.43;3.73;;;18.20;39.10;;;;;;5043361;28;20464;-68
2022/01/22 02:38:56;;;;;;;3.80;3.17;;;18.20;39.20;;;;;;5041687;28;20933;-68
2022/01/22 02:41:24;;;;;;;3.10;2.90;;;18.20;39.20;;;;;;5039600;28;20449;-68
2022/01/22 02:43:52;;;;;;;3.33;3.03;;;18.20;39.10;;;;;;5042228;28;20494;-68
2022/01/22 02:46:22;;;;;;;3.00;2.80;;;18.10;39.10;;;;;;5041315;28;20439;-68
2022/01/22 02:48:47;;;;;;;2.90;2.70;;;18.20;39.20;;;;;;5040619;28;20456;-69
2022/01/22 02:51:13;;;;;;;3.53;3.23;;;18.20;39.20;;;;;;5045235;28;20989;-68
2022/01/22 02:53:39;;;;;;;4.17;3.83;;;18.20;39.10;;;;;;5041462;28;20219;-68
2022/01/22 02:56:05;;;;;;;3.17;2.90;;;18.20;39.10;;;;;;5036107;28;20230;-68
2022/01/22 02:58:31;;;;;;;4.73;3.10;;;18.20;39.10;;;;;;5042464;28;20223;-68
2022/01/22 03:00:57;;;;;;;3.03;2.80;;;18.10;39.10;;;;;;5039351;28;20441;-68
2022/01/22 03:03:23;;;;;;;3.13;2.93;;;18.20;39.20;;;;;;5043469;28;20434;-68
2022/01/22 03:05:49;;;;;;;4.53;3.63;;;18.20;39.20;;;;;;5040308;28;20211;-69
2022/01/22 03:08:15;;;;;;;3.47;3.17;;;18.10;39.10;;;;;;5073590;28;20460;-69
2022/01/22 03:10:49;;;;;;;3.77;2.43;;;18.20;39.20;;;;;;5040732;28;20228;-69
2022/01/22 03:18:42;;;;;;;3.03;2.70;;;18.10;39.10;;;;;;5038370;28;20414;-71
2022/01/22 03:21:15;;;;;;;2.73;2.53;;;18.20;39.20;;;;;;5041227;28;20231;-69
2022/01/22 03:29:14;;;;;;;3.20;2.90;;;18.20;39.20;;;;;;5041488;28;20513;-69
2022/01/22 03:31:42;;;;;;;3.67;3.30;;;18.20;39.20;;;;;;5040006;28;20504;-69
2022/01/22 03:34:07;;;;;;;2.83;2.63;;;18.10;39.10;;;;;;5040311;28;20869;-69
2022/01/22 03:36:34;;;;;;;3.17;2.97;;;18.10;39.10;;;;;;5040394;28;20490;-69
2022/01/22 03:39:01;;;;;;;3.53;3.23;;;18.20;39.90;;;;;;5038669;28;20314;-69
2022/01/22 03:41:27;;;;;;;3.50;2.57;;;18.10;39.10;;;;;;5038596;28;20482;-69
2022/01/22 03:43:53;;;;;;;2.63;2.43;;;18.10;39.10;;;;;;5038534;28;20936;-69
2022/01/22 03:46:20;;;;;;;3.20;3.00;;;18.20;39.20;;;;;;5040186;28;20222;-69
2022/01/22 03:48:46;;;;;;;4.27;3.37;;;18.20;39.10;;;;;;5042667;28;20452;-69
2022/01/22 03:51:12;;;;;;;2.93;2.73;;;18.10;39.10;;;;;;5041416;28;20455;-69
2022/01/22 03:53:38;;;;;;;3.10;2.90;;;18.20;39.20;;;;;;5037383;28;20255;-69
2022/01/22 03:56:06;;;;;;;3.10;2.90;;;18.20;39.50;;;;;;5041740;28;20458;-69
2022/01/22 03:58:37;;;;;;;2.73;2.53;;;18.10;39.10;;;;;;5042608;28;20284;-68
2022/01/22 04:02:12;;;;;;;3.50;3.20;;;18.20;39.20;;;;;;5038547;28;20438;-69
2022/01/22 04:04:02;;;;;;;2.43;2.33;;;18.20;39.20;;;;;;5032919;28;20456;-69
2022/01/22 04:08:56;;;;;;;2.93;2.73;;;18.10;39.10;;;;;;5038587;28;20460;-69
2022/01/22 04:11:21;;;;;;;2.90;2.70;;;18.20;39.20;;;;;;5042183;28;20215;-69
2022/01/22 04:13:50;;;;;;;2.77;2.57;;;18.10;39.10;;;;;;5043907;28;20804;-70
2022/01/22 04:16:16;;;;;;;2.60;2.40;;;18.20;39.20;;;;;;5037572;28;20238;-71
2022/01/22 04:26:58;;;;;;;3.47;3.23;;;18.20;39.20;;;;;;5039216;28;20481;-68
2022/01/22 04:29:26;;;;;;;2.63;2.37;;;18.10;39.00;;;;;;5039229;28;20514;-68
2022/01/22 04:31:52;;;;;;;2.93;2.67;;;18.20;39.20;;;;;;5067501;28;20822;-71
2022/01/22 04:34:18;;;;;;;3.30;3.00;;;18.20;39.20;;;;;;5044072;28;20458;-71
2022/01/22 04:36:43;;;;;;;3.20;3.00;;;18.10;39.10;;;;;;5042179;28;20449;-70
2022/01/22 04:39:10;;;;;;;2.60;2.40;;;18.20;39.20;;;;;;5043130;28;20534;-71
2022/01/22 04:41:36;;;;;;;3.50;2.50;;;18.20;39.20;;;;;;5038419;28;20270;-68
2022/01/22 04:44:05;;;;;;;2.77;2.57;;;18.10;39.10;;;;;;5037175;28;20462;-71
2022/01/22 04:52:34;;;;;;;2.70;2.50;;;18.20;39.20;;;;;;5037131;28;20774;-72
2022/01/22 04:55:01;;;;;;;2.70;2.50;;;18.20;39.20;;;;;;5039670;28;20509;-69
2022/01/22 04:57:28;;;;;;;4.00;2.90;;;18.20;39.20;;;;;;5039198;28;20521;-74
2022/01/22 04:59:54;;;;;;;2.60;2.33;;;18.10;39.10;;;;;;5041715;28;20418;-73
2022/01/22 05:02:20;;;;;;;3.10;2.80;;;18.10;39.10;;;;;;5033743;28;20423;-73
2022/01/22 05:04:45;;;;;;;4.10;2.70;;;18.10;39.00;;;;;;5044687;28;20244;-73
2022/01/22 05:07:11;;;;;;;3.13;2.70;;;18.20;39.10;;;;;;5039290;28;20227;-72
2022/01/22 05:09:36;;;;;;;2.97;2.43;;;18.20;39.10;;;;;;5040054;28;20227;-72
2022/01/22 05:12:04;;;;;;;2.40;2.20;;;18.20;39.10;;;;;;5038457;28;20310;-72
2022/01/22 05:14:30;;;;;;;3.27;3.07;;;18.20;39.10;;;;;;5039528;28;20250;-71
2022/01/22 05:16:56;;;;;;;2.47;2.30;;;18.20;39.10;;;;;;5042415;28;20494;-70
2022/01/22 05:19:33;;;;;;;2.77;2.57;;;18.30;39.90;;;;;;5051647;28;20214;-72
2022/01/22 05:22:07;;;;;;;2.30;2.10;;;18.20;39.10;;;;;;5045336;28;20438;-71
2022/01/22 05:24:38;;;;;;;2.57;2.37;;;18.30;39.10;;;;;;5044112;28;20427;-71
2022/01/22 05:37:15;;;;;;;2.40;2.20;;;18.30;39.20;;;;;;5043995;28;20454;-72
2022/01/22 05:39:41;;;;;;;2.40;2.20;;;18.30;39.20;;;;;;5042929;28;20533;-72
2022/01/22 05:42:09;;;;;;;2.63;2.43;;;18.30;39.20;;;;;;5039138;28;20331;-72
2022/01/22 05:44:35;;;;;;;3.40;2.17;;;18.30;39.20;;;;;;5043239;28;20245;-72
2022/01/22 05:47:05;;;;;;;2.57;2.37;;;18.30;39.20;;;;;;5041851;28;20459;-72
2022/01/22 05:49:33;;;;;;;2.30;2.20;;;18.30;39.20;;;;;;5043278;28;20477;-72
2022/01/22 05:52:02;;;;;;;2.67;2.10;;;18.30;39.30;;;;;;5042960;28;20464;-72
2022/01/22 05:55:10;;;;;;;2.43;2.23;;;18.40;39.40;;;;;;5043114;28;20423;-72
2022/01/22 06:00:16;;;;;;;2.93;2.73;;;18.40;39.50;;;;;;5038491;28;20467;-72
2022/01/22 06:02:42;;;;;;;3.30;3.00;;;18.40;40.10;;;;;;5041386;28;20440;-77
2022/01/22 06:05:07;;;;;;;3.00;2.80;;;18.40;39.50;;;;;;5041892;28;20652;-80
2022/01/22 06:07:33;;;;;;;2.50;2.30;;;18.40;39.40;;;;;;5041207;28;20226;-78
2022/01/22 06:15:10;;;;;;;2.60;2.40;;;18.40;39.50;;;;;;5040142;28;20230;-79
2022/01/22 06:17:36;;;;;;;2.47;2.37;;;18.40;39.40;;;;;;5043745;28;20442;-78
2022/01/22 06:20:03;;;;;;;3.50;2.47;;;18.40;39.50;;;;;;5042059;28;20465;-77
2022/01/22 06:22:28;;;;;;;2.50;2.30;;;18.40;39.50;;;;;;5043696;28;20314;-76
2022/01/22 06:24:54;;;;;;;2.80;2.60;;;18.40;39.50;;;;;;5037598;28;20505;-76
2022/01/22 06:27:20;;;;;;;4.77;2.40;;;18.40;39.50;;;;;;5071917;28;20587;-75
2022/01/22 06:29:45;;;;;;;2.73;2.57;;;18.40;39.50;;;;;;5041213;28;20245;-75
2022/01/22 06:32:11;;;;;;;4.23;2.73;;;18.40;39.50;;;;;;5044552;28;20227;-74
2022/01/22 06:34:36;;;;;;;3.03;2.83;;;18.40;39.50;;;;;;5038790;28;20222;-75
2022/01/22 06:37:02;;;;;;;2.80;2.60;;;18.40;39.50;;;;;;5043031;28;20219;-75
2022/01/22 06:39:28;;;;;;;3.00;2.80;;;18.40;39.60;;;;;;5044795;28;20222;-74
2022/01/22 06:41:53;;;;;;;3.30;2.47;;;18.40;39.60;;;;;;5039741;28;20231;-74
2022/01/22 06:44:25;;;;;;;3.30;2.70;;;18.40;39.60;;;;;;5041344;28;20214;-75
2022/01/22 06:46:53;;;;;;;3.23;2.93;;;18.40;39.60;;;;;;5040113;28;20643;-74
2022/01/22 06:49:20;;;;;;;2.83;2.63;;;18.40;39.60;;;;;;5039184;28;20463;-74
2022/01/22 06:51:46;;;;;;;2.70;2.50;;;18.40;39.60;;;;;;5042914;28;20487;-74
2022/01/22 06:54:14;;;;;;;2.20;2.10;;;18.40;39.60;;;;;;5044870;28;20427;-74
2022/01/22 06:56:40;;;;;;;2.57;2.37;;;18.40;39.60;;;;;;5042233;28;20947;-74
2022/01/22 06:59:11;;;;;;;3.10;2.90;;;18.40;39.60;;;;;;5038811;28;20445;-74
2022/01/22 07:01:37;;;;;;;2.80;2.60;;;18.50;39.70;;;;;;5041751;28;20438;-74
2022/01/22 07:04:03;;;;;;;2.67;2.47;;;18.40;39.60;;;;;;5043313;28;20456;-73
2022/01/22 07:06:29;;;;;;;3.30;2.97;;;18.50;39.70;;;;;;5035565;28;20423;-74
2022/01/22 07:08:54;;;;;;;3.30;2.97;;;18.40;39.70;;;;;;5043204;28;20218;-74
2022/01/22 07:11:20;;;;;;;2.90;2.60;;;18.40;39.70;;;;;;5046528;28;20226;-71
2022/01/22 07:13:46;;;;;;;2.67;2.47;;;18.40;39.70;;;;;;5038041;28;20314;-72
2022/01/22 07:16:13;;;;;;;3.13;2.90;;;18.40;39.70;;;;;;5038237;28;20307;-72
2022/01/22 07:18:38;;;;;;;2.67;2.47;;;18.40;39.70;;;;;;5041630;28;20804;-74
2022/01/22 07:21:20;;;;;;;2.93;2.60;;;18.50;39.70;;;;;;5045276;28;20468;-73
2022/01/22 07:26:12;;;;;;;2.90;2.63;;;18.50;39.60;;;;;;5048127;28;20825;-75
2022/01/22 07:28:39;;;;;;;3.00;2.80;;;18.50;39.60;;;;;;5042503;28;20465;-74
2022/01/22 07:31:05;;;;;;;4.13;2.70;;;18.50;39.50;;;;;;5044994;28;20243;-75
2022/01/22 07:33:31;;;;;;;2.60;2.40;;;18.60;39.50;;;;;;5043865;28;20459;-75
2022/01/22 07:35:56;;;;;;;2.90;2.70;;;18.60;39.50;;;;;;5050633;28;20791;-72
2022/01/22 07:38:22;;;;;;;2.90;2.70;;;18.60;39.40;;;;;;5040234;28;20257;-72
2022/01/22 07:40:48;;;;;;;2.33;2.13;;;18.70;39.40;;;;;;5043246;28;20720;-74
2022/01/22 07:43:14;;;;;;;2.60;2.40;;;18.70;39.30;;;;;;5043131;28;20306;-73
2022/01/22 07:45:40;;;;;;;2.50;2.30;;;18.70;39.20;;;;;;5042116;28;20289;-72
2022/01/22 07:48:06;;;;;;;3.67;2.70;;;18.80;39.30;;;;;;5038107;28;20219;-72
2022/01/22 07:50:32;;;;;;;3.20;2.80;;;18.80;39.30;;;;;;5042701;28;20833;-73
2022/01/22 07:52:58;;;;;;;2.53;2.33;;;18.80;39.30;;;;;;5046035;28;20534;-71
2022/01/22 07:55:24;;;;;;;2.80;2.60;;;18.80;39.30;;;;;;5040867;28;20245;-71
2022/01/22 07:57:50;;;;;;;3.23;2.93;;;18.80;39.30;;;;;;5047681;28;20217;-71
2022/01/22 08:00:16;;;;;;;2.50;2.30;;;18.80;39.30;;;;;;5045686;28;20439;-70
2022/01/22 08:02:43;;;;;;;2.63;2.30;;;18.80;39.30;;;;;;5047377;28;20598;-70
2022/01/22 08:05:09;;;;;;;3.90;2.70;;;18.80;39.30;;;;;;5038746;28;20928;-70
2022/01/22 08:07:34;;;;;;;4.27;2.40;;;18.80;39.30;;;;;;5041307;28;20977;-70
2022/01/22 08:10:02;;;;;;;2.60;2.37;;;18.80;39.40;;;;;;5043134;28;20244;-85
2022/01/22 08:12:28;;;;;;;2.53;2.30;;;18.70;39.30;;;;;;5039126;28;20648;-76
2022/01/22 08:14:54;;;;;;;8.30;3.87;;;18.70;39.30;;;;;;5039164;28;20474;-76
2022/01/22 08:17:19;;;;;;;15.43;3.73;;;18.70;39.30;;;;;;5040972;28;20284;-74
2022/01/22 08:19:46;;;;;;;9.70;3.53;;;18.70;39.40;;;;;;5047881;28;20301;-74
2022/01/22 08:22:11;;;;;;;9.23;3.00;;;18.80;39.50;;;;;;5034372;28;20238;-75
2022/01/22 08:24:38;;;;;;;5.00;3.53;;;18.80;39.50;;;;;;5047553;28;20883;-74
2022/01/22 08:27:18;;;;;;;8.77;2.80;;;18.80;39.40;;;;;;5072904;28;20806;-74
2022/01/22 08:29:43;;;;;;;5.50;3.07;;;18.80;39.50;;;;;;5040418;28;20547;-68
2022/01/22 08:32:29;;;;;;;10.33;3.10;;;18.80;39.50;;;;;;5039651;28;20601;-67
2022/01/22 08:37:39;;;;;;;4.50;3.63;;;18.80;39.50;;;;;;5040523;28;20517;-68
2022/01/22 08:40:07;;;;;;;7.90;2.90;;;18.80;39.50;;;;;;5074547;28;20444;-67
2022/01/22 08:42:33;;;;;;;19.43;4.70;;;18.80;39.50;;;;;;5039857;28;20261;-66
2022/01/22 08:44:58;;;;;;;14.50;4.50;;;18.90;39.60;;;;;;5047918;28;20494;-67
2022/01/22 08:47:24;;;;;;;16.47;4.30;;;18.80;39.60;;;;;;5048403;28;20684;-71
2022/01/22 08:49:50;;;;;;;16.00;4.20;;;18.80;39.60;;;;;;5041537;28;20724;-68
2022/01/22 08:52:16;;;;;;;14.60;3.97;;;18.80;39.70;;;;;;5040447;28;20219;-66
2022/01/22 08:54:43;;;;;;;29.47;4.97;;;18.80;39.60;;;;;;5047411;28;20221;-66
2022/01/22 08:57:10;;;;;;;28.10;5.47;;;18.80;39.70;;;;;;5042765;28;20982;-66
2022/01/22 08:59:36;;;;;;;18.40;4.90;;;18.80;39.70;;;;;;5041629;28;20448;-67
2022/01/22 09:02:04;;;;;;;24.43;5.60;;;18.80;39.80;;;;;;5041401;28;20555;-67
2022/01/22 09:04:31;;;;;;;11.90;3.53;;;18.80;39.80;;;;;;5047452;28;20422;-65
2022/01/22 09:06:57;;;;;;;33.27;5.67;;;18.80;39.80;;;;;;5049292;28;20528;-66
2022/01/22 09:09:23;;;;;;;27.90;5.37;;;18.80;39.80;;;;;;5045231;28;20451;-65
2022/01/22 09:11:48;;;;;;;13.87;4.00;;;18.80;39.80;;;;;;5043476;28;20451;-65
2022/01/22 09:14:16;;;;;;;14.13;4.17;;;18.80;39.90;;;;;;5043177;28;20229;-66
2022/01/22 09:16:43;;;;;;;7.70;3.70;;;18.70;39.80;;;;;;5042023;28;20240;-71
2022/01/22 09:19:11;;;;;;;9.67;4.13;;;18.70;39.90;;;;;;5047650;28;20535;-67
2022/01/22 09:21:41;;;;;;;11.63;3.77;;;18.70;39.90;;;;;;5045865;28;20504;-67
2022/01/22 09:24:07;;;;;;;11.23;4.97;;;18.70;39.90;;;;;;5042113;28;20480;-68
2022/01/22 09:26:33;;;;;;;10.27;3.37;;;18.70;39.90;;;;;;5043062;28;20456;-67
2022/01/22 09:29:00;;;;;;;6.93;4.20;;;18.70;40.00;;;;;;5044918;28;20773;-67
2022/01/22 09:31:27;;;;;;;10.70;2.90;;;18.60;39.90;;;;;;5045496;28;20247;-67
2022/01/22 09:33:58;;;;;;;10.97;3.57;;;18.70;39.90;;;;;;5045256;28;20526;-67
2022/01/22 09:36:25;;;;;;;4.30;3.23;;;18.60;39.80;;;;;;5043301;28;20476;-67
2022/01/22 09:38:51;;;;;;;9.37;3.73;;;18.60;39.90;;;;;;5043712;28;20463;-67
2022/01/22 09:41:18;;;;;;;8.40;3.27;;;18.60;39.90;;;;;;5041554;28;20471;-66
2022/01/22 09:43:44;;;;;;;4.73;2.93;;;18.60;39.90;;;;;;5042407;28;20453;-66
2022/01/22 09:46:11;;;;;;;6.90;3.67;;;18.60;39.80;;;;;;5047087;28;20443;-66
2022/01/22 09:48:41;;;;;;;5.90;3.00;;;18.60;39.80;;;;;;5044901;28;20440;-66
2022/01/22 09:51:07;;;;;;;9.07;3.13;;;18.60;39.80;;;;;;5044890;28;20452;-68
2022/01/22 09:53:32;;;;;;;5.33;4.07;;;18.60;39.80;;;;;;5044221;28;20430;-68
2022/01/22 09:55:58;;;;;;;5.20;3.47;;;18.60;39.80;;;;;;5047324;28;20721;-68
2022/01/22 09:58:24;;;;;;;4.67;3.57;;;18.50;39.70;;;;;;5043045;28;20225;-68
2022/01/22 10:00:50;;;;;;;3.80;3.40;;;18.60;39.80;;;;;;5045896;28;20244;-68
2022/01/22 10:03:19;;;;;;;3.40;3.13;;;18.50;39.80;;;;;;5073315;28;20787;-68
2022/01/22 10:05:45;;;;;;;4.33;3.33;;;18.50;39.80;;;;;;5044088;28;20222;-68
2022/01/22 10:08:21;;;;;;;5.00;3.13;;;18.50;39.90;;;;;;5042797;28;20443;-68
2022/01/22 10:10:48;;;;;;;6.53;4.20;;;18.50;39.70;;;;;;5043679;28;20435;-68
2022/01/22 10:13:15;;;;;;;5.30;3.87;;;18.50;39.70;;;;;;5041762;28;20444;-67
2022/01/22 10:15:41;;;;;;;8.43;3.83;;;18.50;39.70;;;;;;5037049;28;20646;-67
2022/01/22 10:18:08;;;;;;;3.33;3.03;;;18.50;39.70;;;;;;5046436;28;20578;-67
2022/01/22 10:20:41;;;;;;;7.67;4.17;;;18.50;39.70;;;;;;5044187;28;20476;-67
2022/01/22 10:23:18;;;;;;;4.63;3.30;;;18.50;39.70;;;;;;5046778;28;20455;-67
2022/01/22 10:25:50;;;;;;;3.97;3.60;;;18.50;39.70;;;;;;5040620;28;20466;-67
2022/01/22 10:28:22;;;;;;;5.23;3.03;;;18.50;39.70;;;;;;5040853;28;20434;-67
2022/01/22 10:30:54;;;;;;;3.90;3.43;;;18.50;39.70;;;;;;5068895;28;20430;-67
2022/01/22 10:33:33;;;;;;;3.60;3.17;;;18.50;39.70;;;;;;5041031;28;20472;-67
2022/01/22 10:36:10;;;;;;;5.60;3.73;;;18.50;39.80;;;;;;5044241;28;20774;-67
2022/01/22 10:38:46;;;;;;;3.57;3.27;;;18.50;39.70;;;;;;5045370;28;20819;-67
2022/01/22 10:41:18;;;;;;;3.73;3.17;;;18.50;39.80;;;;;;5039505;28;20463;-67
2022/01/22 10:43:55;;;;;;;4.17;3.27;;;18.50;39.70;;;;;;5043181;28;20444;-67
2022/01/22 10:46:42;;;;;;;4.30;3.23;;;18.50;39.70;;;;;;5040101;28;20848;-67
2022/01/22 10:49:19;;;;;;;4.43;3.33;;;18.50;39.70;;;;;;5040469;28;20530;-67
2022/01/22 10:51:52;;;;;;;4.47;3.00;;;18.40;39.70;;;;;;5048550;28;20778;-67
2022/01/22 10:54:21;;;;;;;2.83;2.63;;;18.50;39.80;;;;;;5041882;28;20452;-67
2022/01/22 10:56:47;;;;;;;2.97;2.77;;;18.50;39.70;;;;;;5073519;28;20415;-67
2022/01/22 10:59:16;;;;;;;2.70;2.43;;;18.40;39.70;;;;;;5049910;28;20524;-67
2022/01/22 11:01:59;;;;;;;5.20;3.20;;;18.40;39.70;;;;;;5039680;28;20614;-67
2022/01/22 11:04:28;;;;;;;3.87;3.37;;;18.40;39.80;;;;;;5042743;28;20455;-67
2022/01/22 11:06:57;;;;;;;2.67;2.47;;;18.40;39.70;;;;;;5046455;28;20553;-66
2022/01/22 11:09:24;;;;;;;13.30;3.40;;;18.40;39.70;;;;;;5040088;28;20447;-67
2022/01/22 11:11:51;;;;;;;4.20;2.63;;;18.40;39.70;;;;;;5042554;28;20998;-68
2022/01/22 11:14:18;;;;;;;3.60;2.97;;;18.40;39.80;;;;;;5038777;28;20924;-67
2022/01/22 11:16:46;;;;;;;7.03;3.20;;;18.40;40.50;;;;;;5045563;28;20451;-66
2022/01/22 11:19:18;;;;;;;4.10;3.63;;;18.40;39.70;;;;;;5042042;28;20464;-66
2022/01/22 11:21:47;;;;;;;4.03;3.20;;;18.40;40.50;;;;;;5024136;28;20461;-66
2022/01/22 11:24:15;;;;;;;4.13;2.67;;;18.40;39.70;;;;;;5023735;28;20448;-66
2022/01/22 11:26:47;;;;;;;3.43;2.70;;;18.40;39.70;;;;;;5033021;28;20531;-66
2022/01/22 11:29:15;;;;;;;3.90;2.40;;;18.40;39.80;;;;;;5039170;28;20460;-66
2022/01/22 11:31:45;;;;;;;3.10;2.67;;;18.40;39.70;;;;;;5043822;28;20843;-66
2022/01/22 11:34:15;;;;;;;5.13;3.17;;;18.40;39.80;;;;;;5045057;28;20516;-67
2022/01/22 11:36:53;;;;;;;2.87;2.57;;;18.40;39.70;;;;;;5042346;28;20492;-66
2022/01/22 11:39:21;;;;;;;2.80;2.60;;;18.40;39.80;;;;;;5040194;28;20443;-66
2022/01/22 11:41:58;;;;;;;5.77;3.40;;;18.40;39.70;;;;;;5046965;28;20452;-66
2022/01/22 11:44:47;;;;;;;3.60;2.73;;;18.40;39.80;;;;;;5038027;28;20456;-66
2022/01/22 11:47:20;;;;;;;3.27;2.97;;;18.40;40.50;;;;;;5039952;28;20593;-66
2022/01/22 11:50:10;;;;;;;4.10;2.87;;;18.40;39.80;;;;;;5039060;28;20422;-66
2022/01/22 11:52:38;;;;;;;2.87;2.60;;;18.40;39.80;;;;;;5037287;28;20497;-65
2022/01/22 11:55:13;;;;;;;4.33;2.97;;;18.40;39.80;;;;;;5042299;28;20513;-65
2022/01/22 11:57:41;;;;;;;2.97;2.73;;;18.40;39.80;;;;;;5039963;28;20523;-65
2022/01/22 12:00:28;;;;;;;6.13;3.47;;;18.40;39.80;;;;;;5039713;28;20831;-66
2022/01/22 12:03:08;;;;;;;3.10;2.77;;;18.40;39.90;;;;;;5038497;28;20948;-66
2022/01/22 12:05:54;;;;;;;3.40;2.63;;;18.30;39.80;;;;;;5040618;28;20466;-65
2022/01/22 12:08:24;;;;;;;3.67;3.17;;;18.30;39.80;;;;;;5033189;28;20443;-66
2022/01/22 12:16:40;;;;;;;2.83;2.27;;;18.30;39.80;;;;;;5039851;28;20457;-66
2022/01/22 12:19:48;;;;;;;3.30;3.10;;;18.30;39.80;;;;;;5044157;28;20452;-66
2022/01/22 12:22:35;;;;;;;3.50;2.77;;;18.30;39.80;;;;;;5038239;28;20552;-66
2022/01/22 12:25:13;;;;;;;4.20;2.80;;;18.30;39.80;;;;;;5045282;28;20447;-65
2022/01/22 12:27:53;;;;;;;3.47;2.83;;;18.30;39.90;;;;;;5041551;28;20452;-64
2022/01/22 12:30:36;;;;;;;2.80;2.37;;;18.30;39.90;;;;;;5045116;28;20994;-64
2022/01/22 12:33:05;;;;;;;10.77;3.17;;;18.30;39.90;;;;;;5043000;28;20819;-65
2022/01/22 12:35:44;;;;;;;11.13;3.40;;;18.30;39.80;;;;;;5042580;28;20607;-66
2022/01/22 12:38:19;;;;;;;12.33;3.87;;;18.30;39.80;;;;;;5045420;28;20457;-65
2022/01/22 12:40:46;;;;;;;36.50;9.50;;;18.30;39.80;;;;;;5043782;28;20955;-62
2022/01/22 12:43:19;;;;;;;27.33;7.80;;;18.40;39.90;;;;;;5042646;28;20507;-62
2022/01/22 12:45:53;;;;;;;31.47;9.37;;;18.40;39.90;;;;;;5037955;28;20473;-66
2022/01/22 12:48:20;;;;;;;28.10;8.60;;;18.40;39.80;;;;;;5045860;28;20451;-66
2022/01/22 12:50:46;;;;;;;29.43;9.30;;;18.40;39.80;;;;;;5039774;28;20908;-66
2022/01/22 12:53:15;;;;;;;18.63;8.17;;;18.50;39.90;;;;;;5042993;28;20426;-66
2022/01/22 12:56:03;;;;;;;16.87;7.53;;;18.50;39.80;;;;;;5043280;28;21011;-66
2022/01/22 12:58:41;;;;;;;15.47;6.57;;;18.50;39.80;;;;;;5025896;28;20461;-66
2022/01/22 13:01:22;;;;;;;10.83;6.10;;;18.50;39.80;;;;;;5036536;28;20500;-65
2022/01/22 13:03:51;;;;;;;11.27;6.53;;;18.50;39.90;;;;;;5041900;28;20803;-66
2022/01/22 13:06:18;;;;;;;10.90;5.67;;;18.60;40.00;;;;;;5045443;28;20475;-71
2022/01/22 13:08:44;;;;;;;9.80;4.90;;;18.60;40.00;;;;;;5045966;28;20976;-70
2022/01/22 13:11:14;;;;;;;5.87;4.27;;;18.60;40.10;;;;;;5043349;28;21494;-68
2022/01/22 13:13:40;;;;;;;7.93;4.90;;;18.60;40.00;;;;;;5039681;28;20210;-69
2022/01/22 13:16:11;;;;;;;10.40;4.47;;;18.60;40.00;;;;;;5046558;28;20426;-69
2022/01/22 13:18:43;;;;;;;6.97;4.60;;;18.70;40.10;;;;;;5040389;28;20494;-68
2022/01/22 13:21:12;;;;;;;6.60;3.73;;;18.70;40.20;;;;;;5020280;28;20458;-67
2022/01/22 13:23:38;;;;;;;16.93;5.30;;;18.60;40.10;;;;;;5041716;28;20903;-68
2022/01/22 13:26:05;;;;;;;27.27;5.27;;;18.70;40.20;;;;;;5038770;28;20937;-67
2022/01/22 13:28:33;;;;;;;8.73;5.40;;;18.70;40.10;;;;;;5034087;28;21071;-67
2022/01/22 13:31:06;;;;;;;4.63;4.07;;;18.70;40.10;;;;;;5042696;28;20467;-66
2022/01/22 13:49:52;;;;;;;4.90;4.30;;;18.90;39.90;;;;;;5042092;28;20513;-67
2022/01/22 13:52:20;;;;;;;3.90;3.00;;;18.80;39.70;;;;;;5044553;28;20497;-66
2022/01/22 13:54:51;;;;;;;4.10;3.70;;;18.80;39.70;;;;;;5039491;28;20459;-67
2022/01/22 13:57:31;;;;;;;7.07;3.60;;;18.90;39.80;;;;;;5039667;28;20430;-67
2022/01/22 13:59:57;;;;;;;5.67;3.67;;;18.90;39.80;;;;;;5041661;28;20942;-67
2022/01/22 14:05:29;;;;;;;3.23;3.03;;;18.90;39.80;;;;;;5041704;28;20455;-67
2022/01/22 14:08:00;;;;;;;3.93;3.00;;;18.90;39.80;;;;;;5039548;28;21755;-66
2022/01/22 14:10:27;;;;;;;3.43;3.23;;;18.90;39.80;;;;;;5041994;28;20510;-66
2022/01/22 14:12:58;;;;;;;3.60;3.27;;;18.90;39.70;;;;;;5046329;28;20438;-66
2022/01/22 14:15:24;;;;;;;2.80;2.60;;;18.90;39.70;;;;;;5037991;28;21048;-66
2022/01/22 14:18:19;;;;;;;2.90;2.70;;;18.90;39.70;;;;;;5039594;28;20435;-66
2022/01/22 14:20:55;;;;;;;3.67;3.13;;;18.90;39.70;;;;;;5037935;28;20468;-66
2022/01/22 14:23:23;;;;;;;3.77;3.47;;;18.90;39.60;;;;;;5044703;28;20460;-66
2022/01/22 14:25:58;;;;;;;4.47;2.80;;;19.00;39.70;;;;;;5045845;28;20508;-65
2022/01/22 14:28:38;;;;;;;2.30;2.20;;;18.90;39.50;;;;;;5041506;28;20563;-66
2022/01/22 14:31:24;;;;;;;3.20;3.00;;;18.90;39.50;;;;;;5045243;28;20464;-65
2022/01/22 14:33:50;;;;;;;3.73;3.43;;;19.00;39.60;;;;;;5042606;28;20460;-65
2022/01/22 14:36:20;;;;;;;3.30;3.10;;;19.00;39.60;;;;;;5037709;28;20418;-65
2022/01/22 14:46:52;;;;;;;4.23;2.90;;;19.00;39.60;;;;;;5041813;28;20431;-68
2022/01/22 14:49:24;;;;;;;19.10;5.13;;;19.00;39.60;;;;;;5043107;28;20445;-65
2022/01/22 14:51:50;;;;;;;28.97;4.57;;;19.00;39.60;;;;;;5049503;28;20537;-73
2022/01/22 14:54:19;;;;;;;23.80;4.63;;;19.00;39.60;;;;;;5042712;28;20482;-70
2022/01/22 14:56:44;;;;;;;32.33;3.73;;;19.10;39.70;;;;;;5043392;28;20672;-70
2022/01/22 14:59:10;;;;;;;23.67;5.07;;;19.10;39.80;;;;;;5044378;28;20434;-72
2022/01/22 15:01:36;;;;;;;49.20;6.73;;;19.10;39.70;;;;;;5045964;28;20276;-75